Veendam — PHEO — position and weather

sailwx.info

Track history (hours):
 
Tides and Currents Weather Stations Pressure Air Temp Water Temp Dewpoint Dewpoint Depression Visibility Wind Speed Wind Dir Waves Ship Positions

Veendam (Netherlands)

Last reported at 2017-May-29 08:00 UTC. Time now 2017-May-29 17:00 UTC.
Position N 43°48' W 064°12'.

Type: Ship. MMSI: 246506000.

Wind from 070 at 19 knots

Barometer 1019.0 mb
Air temperature 8.0 ° C
Visibility: greater than 10.8 NM
Dewpoint 3.3 ° C
Water temperature 7.0 ° C

Date/timePositionNaut miles runAvg speedWind from/ knotsBaromVisibWave heightAir tempDewpointWater temp
2017-May-29 08:00N 43°48' W 064°12'7117.6 070 / 191019.010.8 8.0 3.3 7.0
2017-May-29 04:00N 43°06' W 065°30'6817.0 070 / 121019.0 2.2 8.0 8.0 9.0
2017-May-29 00:00N 43°36' W 066°54'135 6.1 180 / 151017.5 10.0 7.9 8.0
2017-May-28 01:52N 42°56' W 069°51'513.8
2017-May-28 01:30N 42°53' W 069°57'713.7
2017-May-28 01:00N 42°49' W 070°04'713.9
2017-May-28 00:30N 42°44' W 070°11'714.1
2017-May-28 00:01N 42°40' W 070°18'713.6
2017-May-27 23:30N 42°36' W 070°26'714.0
2017-May-27 23:00N 42°32' W 070°34'714.0
2017-May-27 22:31N 42°29' W 070°42'713.8
2017-May-27 22:00N 42°25' W 070°50'613.0
2017-May-27 21:30N 42°20' W 070°57'4 7.0
2017-May-27 21:00N 42°21' W 071°01'0 0.8
2017-May-27 20:30N 42°21' W 071°02'0 0.0
2017-May-27 20:00N 42°21' W 071°02'0 0.0
2017-May-27 19:30N 42°21' W 071°02'0 0.0
2017-May-27 19:00N 42°21' W 071°02'0 0.0
2017-May-27 18:30N 42°21' W 071°02'0 0.0
2017-May-27 18:00N 42°21' W 071°02'0 0.0
2017-May-27 17:30N 42°21' W 071°02'0 0.0
2017-May-27 17:00N 42°21' W 071°02'0 0.0
2017-May-27 16:30N 42°21' W 071°02'0 0.0
2017-May-27 16:00N 42°21' W 071°02'0 0.0
2017-May-27 15:30N 42°21' W 071°02'0 0.0
2017-May-27 15:00N 42°21' W 071°02'0 0.0
2017-May-27 14:30N 42°21' W 071°02'0 0.0
2017-May-27 13:30N 42°21' W 071°02'0 0.0
2017-May-27 13:00N 42°21' W 071°02'0 0.0
2017-May-27 12:30N 42°21' W 071°02'0 0.0
2017-May-27 12:00N 42°21' W 071°02'0 0.0
2017-May-27 11:30N 42°21' W 071°02'0 0.4
2017-May-27 11:00N 42°21' W 071°02'4 8.5
2017-May-27 10:31N 42°21' W 070°56'5 9.1
2017-May-27 10:01N 42°24' W 070°51'713.4
2017-May-27 09:30N 42°23' W 070°42'816.4
2017-May-27 09:00N 42°21' W 070°31'815.9
2017-May-27 08:30N 42°21' W 070°20'816.0
2017-May-27 08:00N 42°20' W 070°10'5814.5
2017-May-27 04:00N 41°30' W 069°30'2010.1 310 / 101006.010.8 11.0 9.011.0
2017-May-27 02:00N 41°12' W 069°18'6616.5 330 / 131006.010.8 11.0 9.010.0
2017-May-26 22:00N 40°12' W 068°42'1515.1 270 / 321003.010.8 13.0 9.110.0
2017-May-26 21:00N 40°00' W 068°30'10517.5 260 / 341003.0 14.012.214.0
2017-May-26 15:00N 38°24' W 067°36'9816.3 230 / 241015.010.8 19.016.516.0
2017-May-26 09:00N 36°54' W 066°48'16818.7 210 / 401010.010.8 22.018.923.0
2017-May-26 00:00N 34°18' W 065°30'   200 / 281017.0 23.022.323.0
2017-May-22 08:00N 34°06' W 065°12'7017.6 070 / 251021.010.8 18.014.625.0
2017-May-22 04:00N 35°12' W 065°42'8216.4 080 / 191022.010.8 18.012.723.0
2017-May-21 23:00N 36°24' W 066°30'6716.6 060 / 271022.0 20.013.022.0
2017-May-21 19:00N 37°24' W 067°06'1918.6 040 / 241024.0 18.012.726.0
2017-May-21 18:00N 37°42' W 067°12'1515.3 060 / 271024.0 17.011.526.0
2017-May-21 17:00N 37°54' W 067°24'3919.3 040 / 301024.5 16.012.421.0
2017-May-21 15:00N 38°30' W 067°42'19517.0 040 / 321026.010.8 14.0 8.016.0
2017-May-21 03:29N 41°27' W 069°29'1610.6
2017-May-21 01:57N 41°42' W 069°38'510.5
2017-May-21 01:30N 41°46' W 069°41'2 4.0
2017-May-21 01:00N 41°48' W 069°42'1022.6 190 / 91025.010.8 11.0 7.910.0
2017-May-21 00:32N 41°57' W 069°49'018.6
2017-May-21 00:30N 41°58' W 069°49'918.2
2017-May-21 00:00N 42°06' W 069°55'917.8
2017-May-20 23:30N 42°14' W 069°60'815.2
2017-May-20 23:00N 42°18' W 070°09'918.4
2017-May-20 22:30N 42°18' W 070°21'918.9
2017-May-20 22:00N 42°19' W 070°34'918.5
2017-May-20 21:30N 42°22' W 070°46'612.7
2017-May-20 21:00N 42°22' W 070°54'510.0
2017-May-20 20:30N 42°21' W 071°01'1 1.7
2017-May-20 20:00N 42°21' W 071°02'0 0.0
2017-May-20 19:30N 42°21' W 071°02'0 0.0
2017-May-20 19:00N 42°21' W 071°02'0 0.0
2017-May-20 18:30N 42°21' W 071°02'0 0.0
2017-May-20 18:00N 42°21' W 071°02'0 0.0
2017-May-20 17:30N 42°21' W 071°02'0 0.0
2017-May-20 17:00N 42°21' W 071°02'0 0.0
2017-May-20 16:30N 42°21' W 071°02'0 0.0
2017-May-20 16:00N 42°21' W 071°02'0 0.0
2017-May-20 15:30N 42°21' W 071°02'0 0.0
2017-May-20 15:00N 42°21' W 071°02'0 0.0
2017-May-20 14:30N 42°21' W 071°02'0 0.0
2017-May-20 13:30N 42°21' W 071°02'0 0.0
2017-May-20 13:00N 42°21' W 071°02'0 0.0
2017-May-20 12:30N 42°21' W 071°02'0 0.0
2017-May-20 12:00N 42°21' W 071°02'0 0.0
2017-May-20 11:30N 42°21' W 071°02'0 0.0
2017-May-20 11:00N 42°21' W 071°02'2 4.5
2017-May-20 10:30N 42°20' W 070°59'5 9.6
2017-May-20 10:01N 42°23' W 070°54'5 9.2
2017-May-20 09:30N 42°24' W 070°48'714.8
2017-May-20 09:00N 42°22' W 070°38'816.8
2017-May-20 08:30N 42°21' W 070°27'917.0
2017-May-20 08:00N 42°20' W 070°15'816.8
2017-May-20 07:30N 42°19' W 070°04'815.9
2017-May-20 07:00N 42°14' W 069°56'916.9
2017-May-20 06:29N 42°06' W 069°51'13214.0
2017-May-19 21:00N 40°06' W 068°36'17117.1 240 / 351012.0 5.4 12.010.112.0
2017-May-19 11:00N 37°30' W 067°06'3919.4 270 / 301019.010.8 24.021.026.0
2017-May-19 09:00N 36°54' W 066°48'   270 / 331019.010.8 24.021.026.0
Track history (hours):
 
Tides and Currents Weather Stations Pressure Air Temp Water Temp Dewpoint Dewpoint Depression Visibility Wind Speed Wind Dir Waves Ship Positions

Veendam (Netherlands)

Last reported at 2017-May-29 08:00 UTC. Time now 2017-May-29 17:00 UTC.
Position N 43°48' W 064°12'.

Type: Ship. MMSI: 246506000.

Wind from 070 at 19 knots

Barometer 1019.0 mb
Air temperature 8.0 ° C
Visibility: greater than 10.8 NM
Dewpoint 3.3 ° C
Water temperature 7.0 ° C

Date/timePositionNaut miles runAvg speedWind from/ knotsBaromVisibWave heightAir tempDewpointWater temp
2017-May-29 08:00N 43°48' W 064°12'7117.6 070 / 191019.010.8 8.0 3.3 7.0
2017-May-29 04:00N 43°06' W 065°30'6817.0 070 / 121019.0 2.2 8.0 8.0 9.0
2017-May-29 00:00N 43°36' W 066°54'135 6.1 180 / 151017.5 10.0 7.9 8.0
2017-May-28 01:52N 42°56' W 069°51'513.8
2017-May-28 01:30N 42°53' W 069°57'713.7
2017-May-28 01:00N 42°49' W 070°04'713.9
2017-May-28 00:30N 42°44' W 070°11'714.1
2017-May-28 00:01N 42°40' W 070°18'713.6
2017-May-27 23:30N 42°36' W 070°26'714.0
2017-May-27 23:00N 42°32' W 070°34'714.0
2017-May-27 22:31N 42°29' W 070°42'713.8
2017-May-27 22:00N 42°25' W 070°50'613.0
2017-May-27 21:30N 42°20' W 070°57'4 7.0
2017-May-27 21:00N 42°21' W 071°01'0 0.8
2017-May-27 20:30N 42°21' W 071°02'0 0.0
2017-May-27 20:00N 42°21' W 071°02'0 0.0
2017-May-27 19:30N 42°21' W 071°02'0 0.0
2017-May-27 19:00N 42°21' W 071°02'0 0.0
2017-May-27 18:30N 42°21' W 071°02'0 0.0
2017-May-27 18:00N 42°21' W 071°02'0 0.0
2017-May-27 17:30N 42°21' W 071°02'0 0.0
2017-May-27 17:00N 42°21' W 071°02'0 0.0
2017-May-27 16:30N 42°21' W 071°02'0 0.0
2017-May-27 16:00N 42°21' W 071°02'0 0.0
2017-May-27 15:30N 42°21' W 071°02'0 0.0
2017-May-27 15:00N 42°21' W 071°02'0 0.0
2017-May-27 14:30N 42°21' W 071°02'0 0.0
2017-May-27 13:30N 42°21' W 071°02'0 0.0
2017-May-27 13:00N 42°21' W 071°02'0 0.0
2017-May-27 12:30N 42°21' W 071°02'0 0.0
2017-May-27 12:00N 42°21' W 071°02'0 0.0
2017-May-27 11:30N 42°21' W 071°02'0 0.4
2017-May-27 11:00N 42°21' W 071°02'4 8.5
2017-May-27 10:31N 42°21' W 070°56'5 9.1
2017-May-27 10:01N 42°24' W 070°51'713.4
2017-May-27 09:30N 42°23' W 070°42'816.4
2017-May-27 09:00N 42°21' W 070°31'815.9
2017-May-27 08:30N 42°21' W 070°20'816.0
2017-May-27 08:00N 42°20' W 070°10'5814.5
2017-May-27 04:00N 41°30' W 069°30'2010.1 310 / 101006.010.8 11.0 9.011.0
2017-May-27 02:00N 41°12' W 069°18'6616.5 330 / 131006.010.8 11.0 9.010.0
2017-May-26 22:00N 40°12' W 068°42'1515.1 270 / 321003.010.8 13.0 9.110.0
2017-May-26 21:00N 40°00' W 068°30'10517.5 260 / 341003.0 14.012.214.0
2017-May-26 15:00N 38°24' W 067°36'9816.3 230 / 241015.010.8 19.016.516.0
2017-May-26 09:00N 36°54' W 066°48'16818.7 210 / 401010.010.8 22.018.923.0
2017-May-26 00:00N 34°18' W 065°30'   200 / 281017.0 23.022.323.0
2017-May-22 08:00N 34°06' W 065°12'7017.6 070 / 251021.010.8 18.014.625.0
2017-May-22 04:00N 35°12' W 065°42'8216.4 080 / 191022.010.8 18.012.723.0
2017-May-21 23:00N 36°24' W 066°30'6716.6 060 / 271022.0 20.013.022.0
2017-May-21 19:00N 37°24' W 067°06'1918.6 040 / 241024.0 18.012.726.0
2017-May-21 18:00N 37°42' W 067°12'1515.3 060 / 271024.0 17.011.526.0
2017-May-21 17:00N 37°54' W 067°24'3919.3 040 / 301024.5 16.012.421.0
2017-May-21 15:00N 38°30' W 067°42'19517.0 040 / 321026.010.8 14.0 8.016.0
2017-May-21 03:29N 41°27' W 069°29'1610.6
2017-May-21 01:57N 41°42' W 069°38'510.5
2017-May-21 01:30N 41°46' W 069°41'2 4.0
2017-May-21 01:00N 41°48' W 069°42'1022.6 190 / 91025.010.8 11.0 7.910.0
2017-May-21 00:32N 41°57' W 069°49'018.6
2017-May-21 00:30N 41°58' W 069°49'918.2
2017-May-21 00:00N 42°06' W 069°55'917.8
2017-May-20 23:30N 42°14' W 069°60'815.2
2017-May-20 23:00N 42°18' W 070°09'918.4
2017-May-20 22:30N 42°18' W 070°21'918.9
2017-May-20 22:00N 42°19' W 070°34'918.5
2017-May-20 21:30N 42°22' W 070°46'612.7
2017-May-20 21:00N 42°22' W 070°54'510.0
2017-May-20 20:30N 42°21' W 071°01'1 1.7
2017-May-20 20:00N 42°21' W 071°02'0 0.0
2017-May-20 19:30N 42°21' W 071°02'0 0.0
2017-May-20 19:00N 42°21' W 071°02'0 0.0
2017-May-20 18:30N 42°21' W 071°02'0 0.0
2017-May-20 18:00N 42°21' W 071°02'0 0.0
2017-May-20 17:30N 42°21' W 071°02'0 0.0
2017-May-20 17:00N 42°21' W 071°02'0 0.0
2017-May-20 16:30N 42°21' W 071°02'0 0.0
2017-May-20 16:00N 42°21' W 071°02'0 0.0
2017-May-20 15:30N 42°21' W 071°02'0 0.0
2017-May-20 15:00N 42°21' W 071°02'0 0.0
2017-May-20 14:30N 42°21' W 071°02'0 0.0
2017-May-20 13:30N 42°21' W 071°02'0 0.0
2017-May-20 13:00N 42°21' W 071°02'0 0.0
2017-May-20 12:30N 42°21' W 071°02'0 0.0
2017-May-20 12:00N 42°21' W 071°02'0 0.0
2017-May-20 11:30N 42°21' W 071°02'0 0.0
2017-May-20 11:00N 42°21' W 071°02'2 4.5
2017-May-20 10:30N 42°20' W 070°59'5 9.6
2017-May-20 10:01N 42°23' W 070°54'5 9.2
2017-May-20 09:30N 42°24' W 070°48'714.8
2017-May-20 09:00N 42°22' W 070°38'816.8
2017-May-20 08:30N 42°21' W 070°27'917.0
2017-May-20 08:00N 42°20' W 070°15'816.8
2017-May-20 07:30N 42°19' W 070°04'815.9
2017-May-20 07:00N 42°14' W 069°56'916.9
2017-May-20 06:29N 42°06' W 069°51'13214.0
2017-May-19 21:00N 40°06' W 068°36'17117.1 240 / 351012.0 5.4 12.010.112.0
2017-May-19 11:00N 37°30' W 067°06'3919.4 270 / 301019.010.8 24.021.026.0
2017-May-19 09:00N 36°54' W 066°48'   270 / 331019.010.8 24.021.026.0

Dump ship's entire track history